sensor_id;sensor_type;location;lat;lon;timestamp;P1;durP1;ratioP1;P2;durP2;ratioP2
5805;SDS011;2929;50.810;8.342;2023-03-14T00:01:38;4.00;;;1.30;;
5805;SDS011;2929;50.810;8.342;2023-03-14T00:04:05;4.70;;;1.50;;
5805;SDS011;2929;50.810;8.342;2023-03-14T00:06:32;3.43;;;1.13;;
5805;SDS011;2929;50.810;8.342;2023-03-14T00:09:01;6.40;;;1.00;;
5805;SDS011;2929;50.810;8.342;2023-03-14T00:11:28;2.10;;;1.57;;
5805;SDS011;2929;50.810;8.342;2023-03-14T00:13:56;2.33;;;1.13;;
5805;SDS011;2929;50.810;8.342;2023-03-14T00:16:24;1.53;;;0.90;;
5805;SDS011;2929;50.810;8.342;2023-03-14T00:18:53;3.70;;;1.27;;
5805;SDS011;2929;50.810;8.342;2023-03-14T00:21:20;2.40;;;1.03;;
5805;SDS011;2929;50.810;8.342;2023-03-14T00:23:47;5.80;;;1.00;;
5805;SDS011;2929;50.810;8.342;2023-03-14T00:26:15;3.87;;;1.30;;
5805;SDS011;2929;50.810;8.342;2023-03-14T00:28:43;0.93;;;0.87;;
5805;SDS011;2929;50.810;8.342;2023-03-14T00:31:12;3.00;;;0.80;;
5805;SDS011;2929;50.810;8.342;2023-03-14T00:33:40;4.33;;;0.90;;
5805;SDS011;2929;50.810;8.342;2023-03-14T00:36:09;1.90;;;0.83;;
5805;SDS011;2929;50.810;8.342;2023-03-14T00:38:38;6.63;;;0.83;;
5805;SDS011;2929;50.810;8.342;2023-03-14T00:41:07;3.30;;;1.00;;
5805;SDS011;2929;50.810;8.342;2023-03-14T00:43:36;10.43;;;2.03;;
5805;SDS011;2929;50.810;8.342;2023-03-14T00:46:03;1.87;;;0.80;;
5805;SDS011;2929;50.810;8.342;2023-03-14T00:48:31;3.77;;;1.00;;
5805;SDS011;2929;50.810;8.342;2023-03-14T00:50:59;3.77;;;1.10;;
5805;SDS011;2929;50.810;8.342;2023-03-14T00:53:28;0.90;;;0.70;;
5805;SDS011;2929;50.810;8.342;2023-03-14T00:55:55;0.90;;;0.70;;
5805;SDS011;2929;50.810;8.342;2023-03-14T00:58:23;3.73;;;0.97;;
5805;SDS011;2929;50.810;8.342;2023-03-14T01:00:50;1.73;;;1.13;;
5805;SDS011;2929;50.810;8.342;2023-03-14T01:03:17;1.83;;;1.00;;
5805;SDS011;2929;50.810;8.342;2023-03-14T01:05:44;4.20;;;0.97;;
5805;SDS011;2929;50.810;8.342;2023-03-14T01:08:11;2.50;;;0.97;;
5805;SDS011;2929;50.810;8.342;2023-03-14T01:10:40;4.37;;;1.30;;
5805;SDS011;2929;50.810;8.342;2023-03-14T01:13:07;3.10;;;1.10;;
5805;SDS011;2929;50.810;8.342;2023-03-14T01:15:35;4.67;;;1.00;;
5805;SDS011;2929;50.810;8.342;2023-03-14T01:18:02;8.80;;;1.40;;
5805;SDS011;2929;50.810;8.342;2023-03-14T01:20:30;3.93;;;1.23;;
5805;SDS011;2929;50.810;8.342;2023-03-14T01:22:57;4.13;;;1.40;;
5805;SDS011;2929;50.810;8.342;2023-03-14T01:25:24;1.90;;;1.20;;
5805;SDS011;2929;50.810;8.342;2023-03-14T01:27:53;5.87;;;1.57;;
5805;SDS011;2929;50.810;8.342;2023-03-14T01:30:20;3.03;;;1.13;;
5805;SDS011;2929;50.810;8.342;2023-03-14T01:32:47;1.43;;;1.20;;
5805;SDS011;2929;50.810;8.342;2023-03-14T01:35:14;4.33;;;2.03;;
5805;SDS011;2929;50.810;8.342;2023-03-14T01:37:41;5.07;;;1.10;;
5805;SDS011;2929;50.810;8.342;2023-03-14T01:40:14;5.07;;;1.43;;
5805;SDS011;2929;50.810;8.342;2023-03-14T01:42:45;4.17;;;1.40;;
5805;SDS011;2929;50.810;8.342;2023-03-14T01:48:43;4.67;;;1.87;;
5805;SDS011;2929;50.810;8.342;2023-03-14T01:51:16;3.03;;;1.60;;
5805;SDS011;2929;50.810;8.342;2023-03-14T01:53:45;6.63;;;1.53;;
5805;SDS011;2929;50.810;8.342;2023-03-14T01:56:14;6.10;;;1.57;;
5805;SDS011;2929;50.810;8.342;2023-03-14T01:58:44;7.27;;;1.70;;
5805;SDS011;2929;50.810;8.342;2023-03-14T02:01:14;6.20;;;1.60;;
5805;SDS011;2929;50.810;8.342;2023-03-14T02:03:46;3.87;;;1.23;;
5805;SDS011;2929;50.810;8.342;2023-03-14T02:06:17;7.57;;;1.67;;
5805;SDS011;2929;50.810;8.342;2023-03-14T02:08:48;5.33;;;1.70;;
5805;SDS011;2929;50.810;8.342;2023-03-14T02:11:19;8.10;;;1.80;;
5805;SDS011;2929;50.810;8.342;2023-03-14T02:14:05;5.77;;;1.80;;
5805;SDS011;2929;50.810;8.342;2023-03-14T02:16:56;9.07;;;2.73;;
5805;SDS011;2929;50.810;8.342;2023-03-14T02:22:58;5.03;;;1.67;;
5805;SDS011;2929;50.810;8.342;2023-03-14T02:25:29;11.17;;;2.07;;
5805;SDS011;2929;50.810;8.342;2023-03-14T02:28:06;16.40;;;2.63;;
5805;SDS011;2929;50.810;8.342;2023-03-14T02:30:33;5.00;;;1.87;;
5805;SDS011;2929;50.810;8.342;2023-03-14T02:33:03;5.77;;;1.50;;
5805;SDS011;2929;50.810;8.342;2023-03-14T02:35:32;8.07;;;3.17;;
5805;SDS011;2929;50.810;8.342;2023-03-14T02:38:03;12.73;;;2.00;;
5805;SDS011;2929;50.810;8.342;2023-03-14T02:40:39;4.50;;;1.60;;
5805;SDS011;2929;50.810;8.342;2023-03-14T02:43:08;4.40;;;1.50;;
5805;SDS011;2929;50.810;8.342;2023-03-14T02:45:39;8.77;;;1.70;;
5805;SDS011;2929;50.810;8.342;2023-03-14T02:48:11;6.10;;;1.80;;
5805;SDS011;2929;50.810;8.342;2023-03-14T02:50:42;5.57;;;1.40;;
5805;SDS011;2929;50.810;8.342;2023-03-14T02:53:11;3.03;;;1.20;;
5805;SDS011;2929;50.810;8.342;2023-03-14T02:55:44;3.57;;;1.30;;
5805;SDS011;2929;50.810;8.342;2023-03-14T02:58:13;3.70;;;1.60;;
5805;SDS011;2929;50.810;8.342;2023-03-14T03:00:41;5.17;;;1.23;;
5805;SDS011;2929;50.810;8.342;2023-03-14T03:03:10;2.60;;;1.33;;
5805;SDS011;2929;50.810;8.342;2023-03-14T03:05:37;2.17;;;1.23;;
5805;SDS011;2929;50.810;8.342;2023-03-14T03:08:05;4.30;;;1.67;;
5805;SDS011;2929;50.810;8.342;2023-03-14T03:10:33;2.73;;;1.33;;
5805;SDS011;2929;50.810;8.342;2023-03-14T03:13:00;3.47;;;1.80;;
5805;SDS011;2929;50.810;8.342;2023-03-14T03:15:29;3.80;;;1.77;;
5805;SDS011;2929;50.810;8.342;2023-03-14T03:17:56;7.97;;;1.90;;
5805;SDS011;2929;50.810;8.342;2023-03-14T03:20:23;8.60;;;2.23;;
5805;SDS011;2929;50.810;8.342;2023-03-14T03:22:50;4.40;;;1.60;;
5805;SDS011;2929;50.810;8.342;2023-03-14T03:25:17;10.10;;;2.03;;
5805;SDS011;2929;50.810;8.342;2023-03-14T03:27:44;12.87;;;2.03;;
5805;SDS011;2929;50.810;8.342;2023-03-14T03:30:15;4.23;;;1.70;;
5805;SDS011;2929;50.810;8.342;2023-03-14T03:32:44;8.87;;;1.90;;
5805;SDS011;2929;50.810;8.342;2023-03-14T03:35:12;2.87;;;1.73;;
5805;SDS011;2929;50.810;8.342;2023-03-14T03:37:40;7.70;;;2.10;;
5805;SDS011;2929;50.810;8.342;2023-03-14T03:40:08;5.20;;;1.70;;
5805;SDS011;2929;50.810;8.342;2023-03-14T03:42:36;11.73;;;2.10;;
5805;SDS011;2929;50.810;8.342;2023-03-14T03:45:07;5.83;;;2.20;;
5805;SDS011;2929;50.810;8.342;2023-03-14T03:47:40;14.87;;;2.60;;
5805;SDS011;2929;50.810;8.342;2023-03-14T03:50:09;9.93;;;1.70;;
5805;SDS011;2929;50.810;8.342;2023-03-14T03:52:36;19.10;;;2.40;;
5805;SDS011;2929;50.810;8.342;2023-03-14T03:55:04;9.13;;;2.13;;
5805;SDS011;2929;50.810;8.342;2023-03-14T03:57:31;4.17;;;1.90;;
5805;SDS011;2929;50.810;8.342;2023-03-14T03:59:58;11.50;;;2.10;;
5805;SDS011;2929;50.810;8.342;2023-03-14T04:02:26;7.40;;;1.90;;
5805;SDS011;2929;50.810;8.342;2023-03-14T04:04:53;10.53;;;1.90;;
5805;SDS011;2929;50.810;8.342;2023-03-14T04:07:22;12.37;;;2.40;;
5805;SDS011;2929;50.810;8.342;2023-03-14T04:09:50;15.47;;;2.80;;
5805;SDS011;2929;50.810;8.342;2023-03-14T04:12:29;8.57;;;1.60;;
5805;SDS011;2929;50.810;8.342;2023-03-14T04:15:12;8.27;;;1.90;;
5805;SDS011;2929;50.810;8.342;2023-03-14T04:17:45;5.07;;;1.53;;
5805;SDS011;2929;50.810;8.342;2023-03-14T04:20:13;14.73;;;2.27;;
5805;SDS011;2929;50.810;8.342;2023-03-14T04:22:42;10.67;;;1.97;;
5805;SDS011;2929;50.810;8.342;2023-03-14T04:25:09;6.67;;;1.87;;
5805;SDS011;2929;50.810;8.342;2023-03-14T04:27:41;12.73;;;2.10;;
5805;SDS011;2929;50.810;8.342;2023-03-14T04:30:16;6.20;;;1.70;;
5805;SDS011;2929;50.810;8.342;2023-03-14T04:32:53;12.73;;;1.80;;
5805;SDS011;2929;50.810;8.342;2023-03-14T04:35:22;11.83;;;1.90;;
5805;SDS011;2929;50.810;8.342;2023-03-14T04:37:55;8.50;;;1.80;;
5805;SDS011;2929;50.810;8.342;2023-03-14T04:40:22;5.73;;;1.83;;
5805;SDS011;2929;50.810;8.342;2023-03-14T04:42:53;10.73;;;2.03;;
5805;SDS011;2929;50.810;8.342;2023-03-14T04:45:20;5.03;;;1.80;;
5805;SDS011;2929;50.810;8.342;2023-03-14T04:47:48;8.90;;;1.87;;
5805;SDS011;2929;50.810;8.342;2023-03-14T04:50:17;9.00;;;1.90;;
5805;SDS011;2929;50.810;8.342;2023-03-14T04:52:45;5.37;;;1.60;;
5805;SDS011;2929;50.810;8.342;2023-03-14T04:55:14;8.77;;;1.73;;
5805;SDS011;2929;50.810;8.342;2023-03-14T04:57:41;5.83;;;2.00;;
5805;SDS011;2929;50.810;8.342;2023-03-14T05:00:09;15.10;;;1.83;;
5805;SDS011;2929;50.810;8.342;2023-03-14T05:02:53;7.40;;;1.30;;
5805;SDS011;2929;50.810;8.342;2023-03-14T05:05:27;5.40;;;1.50;;
5805;SDS011;2929;50.810;8.342;2023-03-14T05:08:20;5.77;;;1.40;;
5805;SDS011;2929;50.810;8.342;2023-03-14T05:11:09;5.57;;;1.47;;
5805;SDS011;2929;50.810;8.342;2023-03-14T05:13:55;7.33;;;1.67;;
5805;SDS011;2929;50.810;8.342;2023-03-14T05:16:36;11.30;;;1.73;;
5805;SDS011;2929;50.810;8.342;2023-03-14T05:19:22;5.23;;;1.77;;
5805;SDS011;2929;50.810;8.342;2023-03-14T05:22:12;5.83;;;1.43;;
5805;SDS011;2929;50.810;8.342;2023-03-14T05:24:59;7.27;;;1.47;;
5805;SDS011;2929;50.810;8.342;2023-03-14T05:27:41;3.57;;;1.17;;
5805;SDS011;2929;50.810;8.342;2023-03-14T05:30:26;8.43;;;1.47;;
5805;SDS011;2929;50.810;8.342;2023-03-14T05:33:04;4.40;;;1.30;;
5805;SDS011;2929;50.810;8.342;2023-03-14T05:35:41;3.20;;;0.90;;
5805;SDS011;2929;50.810;8.342;2023-03-14T05:38:29;5.13;;;1.03;;
5805;SDS011;2929;50.810;8.342;2023-03-14T05:41:22;2.40;;;1.67;;
5805;SDS011;2929;50.810;8.342;2023-03-14T05:43:57;1.13;;;0.80;;
5805;SDS011;2929;50.810;8.342;2023-03-14T05:46:27;2.13;;;0.63;;
5805;SDS011;2929;50.810;8.342;2023-03-14T05:49:14;2.13;;;0.70;;
5805;SDS011;2929;50.810;8.342;2023-03-14T05:52:00;1.73;;;0.80;;
5805;SDS011;2929;50.810;8.342;2023-03-14T05:54:36;3.43;;;1.10;;
5805;SDS011;2929;50.810;8.342;2023-03-14T05:57:17;8.00;;;1.00;;
5805;SDS011;2929;50.810;8.342;2023-03-14T06:00:05;2.07;;;1.10;;
5805;SDS011;2929;50.810;8.342;2023-03-14T06:02:47;6.30;;;1.30;;
5805;SDS011;2929;50.810;8.342;2023-03-14T06:05:21;3.87;;;1.03;;
5805;SDS011;2929;50.810;8.342;2023-03-14T06:07:52;4.13;;;1.10;;
5805;SDS011;2929;50.810;8.342;2023-03-14T06:10:20;1.97;;;1.17;;
5805;SDS011;2929;50.810;8.342;2023-03-14T06:12:47;1.27;;;0.87;;
5805;SDS011;2929;50.810;8.342;2023-03-14T06:15:15;1.73;;;1.00;;
5805;SDS011;2929;50.810;8.342;2023-03-14T06:17:45;7.80;;;1.20;;
5805;SDS011;2929;50.810;8.342;2023-03-14T06:20:13;2.47;;;1.30;;
5805;SDS011;2929;50.810;8.342;2023-03-14T06:22:40;1.20;;;1.10;;
5805;SDS011;2929;50.810;8.342;2023-03-14T06:25:09;7.87;;;1.90;;
5805;SDS011;2929;50.810;8.342;2023-03-14T06:27:36;6.07;;;1.03;;
5805;SDS011;2929;50.810;8.342;2023-03-14T06:30:03;2.60;;;1.17;;
5805;SDS011;2929;50.810;8.342;2023-03-14T06:32:33;4.27;;;1.00;;
5805;SDS011;2929;50.810;8.342;2023-03-14T06:35:05;3.50;;;1.00;;
5805;SDS011;2929;50.810;8.342;2023-03-14T06:37:36;1.00;;;0.73;;
5805;SDS011;2929;50.810;8.342;2023-03-14T06:40:04;5.80;;;1.20;;
5805;SDS011;2929;50.810;8.342;2023-03-14T06:43:08;2.10;;;1.47;;
5805;SDS011;2929;50.810;8.342;2023-03-14T06:45:37;0.83;;;0.50;;
5805;SDS011;2929;50.810;8.342;2023-03-14T06:48:06;0.97;;;0.60;;
5805;SDS011;2929;50.810;8.342;2023-03-14T06:50:47;1.60;;;0.50;;
5805;SDS011;2929;50.810;8.342;2023-03-14T06:53:15;9.30;;;0.77;;
5805;SDS011;2929;50.810;8.342;2023-03-14T06:55:43;1.47;;;0.90;;
5805;SDS011;2929;50.810;8.342;2023-03-14T06:58:12;0.90;;;0.60;;
5805;SDS011;2929;50.810;8.342;2023-03-14T07:00:42;0.70;;;0.60;;
5805;SDS011;2929;50.810;8.342;2023-03-14T07:03:13;2.97;;;0.87;;
5805;SDS011;2929;50.810;8.342;2023-03-14T07:05:44;0.60;;;0.50;;
5805;SDS011;2929;50.810;8.342;2023-03-14T07:08:11;0.80;;;0.60;;
5805;SDS011;2929;50.810;8.342;2023-03-14T07:10:38;0.63;;;0.50;;
5805;SDS011;2929;50.810;8.342;2023-03-14T07:13:06;0.80;;;0.60;;
5805;SDS011;2929;50.810;8.342;2023-03-14T07:15:42;0.60;;;0.60;;
5805;SDS011;2929;50.810;8.342;2023-03-14T07:18:10;0.70;;;0.57;;
5805;SDS011;2929;50.810;8.342;2023-03-14T07:20:39;3.60;;;0.70;;
5805;SDS011;2929;50.810;8.342;2023-03-14T07:23:07;1.17;;;0.53;;
5805;SDS011;2929;50.810;8.342;2023-03-14T07:25:42;1.00;;;0.80;;
5805;SDS011;2929;50.810;8.342;2023-03-14T07:28:09;1.57;;;0.97;;
5805;SDS011;2929;50.810;8.342;2023-03-14T07:30:39;1.13;;;0.80;;
5805;SDS011;2929;50.810;8.342;2023-03-14T07:33:15;1.07;;;0.70;;
5805;SDS011;2929;50.810;8.342;2023-03-14T07:35:42;3.40;;;0.90;;
5805;SDS011;2929;50.810;8.342;2023-03-14T07:38:09;0.90;;;0.80;;
5805;SDS011;2929;50.810;8.342;2023-03-14T07:40:48;1.67;;;0.70;;
5805;SDS011;2929;50.810;8.342;2023-03-14T07:43:15;8.20;;;0.63;;
5805;SDS011;2929;50.810;8.342;2023-03-14T07:45:47;1.00;;;0.73;;
5805;SDS011;2929;50.810;8.342;2023-03-14T07:48:15;0.50;;;0.50;;
5805;SDS011;2929;50.810;8.342;2023-03-14T07:50:43;2.70;;;1.00;;
5805;SDS011;2929;50.810;8.342;2023-03-14T07:53:10;2.30;;;0.77;;
5805;SDS011;2929;50.810;8.342;2023-03-14T07:55:37;1.83;;;0.70;;
5805;SDS011;2929;50.810;8.342;2023-03-14T07:58:05;0.73;;;0.70;;
5805;SDS011;2929;50.810;8.342;2023-03-14T08:00:32;1.13;;;0.60;;
5805;SDS011;2929;50.810;8.342;2023-03-14T08:06:48;1.17;;;0.60;;
5805;SDS011;2929;50.810;8.342;2023-03-14T08:09:15;0.70;;;0.63;;
5805;SDS011;2929;50.810;8.342;2023-03-14T08:11:42;1.20;;;0.60;;
5805;SDS011;2929;50.810;8.342;2023-03-14T08:14:11;0.70;;;0.60;;
5805;SDS011;2929;50.810;8.342;2023-03-14T08:16:39;1.97;;;0.70;;
5805;SDS011;2929;50.810;8.342;2023-03-14T08:19:06;1.83;;;0.63;;
5805;SDS011;2929;50.810;8.342;2023-03-14T08:21:33;1.00;;;0.60;;
5805;SDS011;2929;50.810;8.342;2023-03-14T08:24:02;0.70;;;0.70;;
5805;SDS011;2929;50.810;8.342;2023-03-14T08:26:29;2.50;;;0.80;;
5805;SDS011;2929;50.810;8.342;2023-03-14T08:28:56;1.20;;;1.00;;
5805;SDS011;2929;50.810;8.342;2023-03-14T08:31:23;0.83;;;0.60;;
5805;SDS011;2929;50.810;8.342;2023-03-14T08:33:50;2.23;;;0.70;;
5805;SDS011;2929;50.810;8.342;2023-03-14T08:36:18;0.50;;;0.50;;
5805;SDS011;2929;50.810;8.342;2023-03-14T08:38:45;2.80;;;0.90;;
5805;SDS011;2929;50.810;8.342;2023-03-14T08:41:14;2.20;;;0.90;;
5805;SDS011;2929;50.810;8.342;2023-03-14T08:43:41;1.43;;;0.57;;
5805;SDS011;2929;50.810;8.342;2023-03-14T08:46:08;0.80;;;0.80;;
5805;SDS011;2929;50.810;8.342;2023-03-14T08:48:35;0.97;;;0.50;;
5805;SDS011;2929;50.810;8.342;2023-03-14T08:51:05;1.47;;;0.63;;
5805;SDS011;2929;50.810;8.342;2023-03-14T08:53:34;1.00;;;0.60;;
5805;SDS011;2929;50.810;8.342;2023-03-14T08:56:01;5.60;;;0.70;;
5805;SDS011;2929;50.810;8.342;2023-03-14T08:58:30;3.03;;;0.60;;
5805;SDS011;2929;50.810;8.342;2023-03-14T09:00:57;0.70;;;0.60;;
5805;SDS011;2929;50.810;8.342;2023-03-14T09:03:24;1.23;;;0.63;;
5805;SDS011;2929;50.810;8.342;2023-03-14T09:05:51;0.70;;;0.60;;
5805;SDS011;2929;50.810;8.342;2023-03-14T09:08:18;0.57;;;0.53;;
5805;SDS011;2929;50.810;8.342;2023-03-14T09:10:45;0.63;;;0.50;;
5805;SDS011;2929;50.810;8.342;2023-03-14T09:13:12;0.80;;;0.60;;
5805;SDS011;2929;50.810;8.342;2023-03-14T09:15:41;0.63;;;0.50;;
5805;SDS011;2929;50.810;8.342;2023-03-14T09:18:08;1.17;;;0.57;;
5805;SDS011;2929;50.810;8.342;2023-03-14T09:20:35;0.50;;;0.50;;
5805;SDS011;2929;50.810;8.342;2023-03-14T09:23:02;0.47;;;0.47;;
5805;SDS011;2929;50.810;8.342;2023-03-14T09:25:32;0.70;;;0.70;;
5805;SDS011;2929;50.810;8.342;2023-03-14T09:27:59;1.07;;;0.60;;
5805;SDS011;2929;50.810;8.342;2023-03-14T09:30:26;3.60;;;0.60;;
5805;SDS011;2929;50.810;8.342;2023-03-14T09:32:55;0.63;;;0.47;;
5805;SDS011;2929;50.810;8.342;2023-03-14T09:35:22;0.80;;;0.60;;
5805;SDS011;2929;50.810;8.342;2023-03-14T09:37:50;0.70;;;0.50;;
5805;SDS011;2929;50.810;8.342;2023-03-14T09:40:17;0.60;;;0.60;;
5805;SDS011;2929;50.810;8.342;2023-03-14T09:42:46;1.13;;;0.53;;
5805;SDS011;2929;50.810;8.342;2023-03-14T09:45:17;1.57;;;0.50;;
5805;SDS011;2929;50.810;8.342;2023-03-14T09:47:49;0.60;;;0.60;;
5805;SDS011;2929;50.810;8.342;2023-03-14T09:50:18;0.50;;;0.50;;
5805;SDS011;2929;50.810;8.342;2023-03-14T09:52:47;0.40;;;0.40;;
5805;SDS011;2929;50.810;8.342;2023-03-14T09:55:18;2.20;;;0.60;;
5805;SDS011;2929;50.810;8.342;2023-03-14T09:57:47;0.50;;;0.50;;
5805;SDS011;2929;50.810;8.342;2023-03-14T10:00:17;0.50;;;0.47;;
5805;SDS011;2929;50.810;8.342;2023-03-14T10:02:51;0.40;;;0.40;;
5805;SDS011;2929;50.810;8.342;2023-03-14T10:05:22;1.40;;;0.53;;
5805;SDS011;2929;50.810;8.342;2023-03-14T10:07:53;0.70;;;0.50;;
5805;SDS011;2929;50.810;8.342;2023-03-14T10:10:20;0.40;;;0.40;;
5805;SDS011;2929;50.810;8.342;2023-03-14T10:12:54;0.67;;;0.50;;
5805;SDS011;2929;50.810;8.342;2023-03-14T10:15:24;0.50;;;0.50;;
5805;SDS011;2929;50.810;8.342;2023-03-14T10:17:53;0.50;;;0.50;;
5805;SDS011;2929;50.810;8.342;2023-03-14T10:20:29;0.50;;;0.50;;
5805;SDS011;2929;50.810;8.342;2023-03-14T10:23:03;0.67;;;0.67;;
5805;SDS011;2929;50.810;8.342;2023-03-14T10:25:33;1.00;;;0.60;;
5805;SDS011;2929;50.810;8.342;2023-03-14T10:28:02;1.80;;;0.73;;
5805;SDS011;2929;50.810;8.342;2023-03-14T10:30:38;0.50;;;0.50;;
5805;SDS011;2929;50.810;8.342;2023-03-14T10:33:09;0.60;;;0.60;;
5805;SDS011;2929;50.810;8.342;2023-03-14T10:35:39;0.70;;;0.50;;
5805;SDS011;2929;50.810;8.342;2023-03-14T10:38:10;0.83;;;0.50;;
5805;SDS011;2929;50.810;8.342;2023-03-14T10:40:40;0.60;;;0.50;;
5805;SDS011;2929;50.810;8.342;2023-03-14T10:43:15;0.50;;;0.50;;
5805;SDS011;2929;50.810;8.342;2023-03-14T10:45:47;0.83;;;0.50;;
5805;SDS011;2929;50.810;8.342;2023-03-14T10:48:24;1.30;;;0.50;;
5805;SDS011;2929;50.810;8.342;2023-03-14T10:50:58;1.33;;;0.60;;
5805;SDS011;2929;50.810;8.342;2023-03-14T10:53:34;0.47;;;0.47;;
5805;SDS011;2929;50.810;8.342;2023-03-14T10:56:07;0.60;;;0.50;;
5805;SDS011;2929;50.810;8.342;2023-03-14T10:58:43;0.50;;;0.50;;
5805;SDS011;2929;50.810;8.342;2023-03-14T11:01:29;0.50;;;0.50;;
5805;SDS011;2929;50.810;8.342;2023-03-14T11:04:05;0.50;;;0.50;;
5805;SDS011;2929;50.810;8.342;2023-03-14T11:06:55;0.50;;;0.50;;
5805;SDS011;2929;50.810;8.342;2023-03-14T11:09:29;0.50;;;0.50;;
5805;SDS011;2929;50.810;8.342;2023-03-14T11:12:02;1.00;;;0.70;;
5805;SDS011;2929;50.810;8.342;2023-03-14T11:14:40;0.50;;;0.50;;
5805;SDS011;2929;50.810;8.342;2023-03-14T11:17:14;0.60;;;0.60;;
5805;SDS011;2929;50.810;8.342;2023-03-14T11:19:55;0.70;;;0.50;;
5805;SDS011;2929;50.810;8.342;2023-03-14T11:22:33;2.00;;;0.93;;
5805;SDS011;2929;50.810;8.342;2023-03-14T11:25:10;0.77;;;0.60;;
5805;SDS011;2929;50.810;8.342;2023-03-14T11:27:42;0.70;;;0.70;;
5805;SDS011;2929;50.810;8.342;2023-03-14T11:30:16;2.20;;;0.70;;
5805;SDS011;2929;50.810;8.342;2023-03-14T11:32:46;0.50;;;0.50;;
5805;SDS011;2929;50.810;8.342;2023-03-14T11:35:21;0.43;;;0.43;;
5805;SDS011;2929;50.810;8.342;2023-03-14T11:37:54;1.13;;;0.50;;
5805;SDS011;2929;50.810;8.342;2023-03-14T11:40:26;0.80;;;0.80;;
5805;SDS011;2929;50.810;8.342;2023-03-14T11:42:56;1.83;;;0.90;;
5805;SDS011;2929;50.810;8.342;2023-03-14T11:45:32;1.27;;;0.70;;
5805;SDS011;2929;50.810;8.342;2023-03-14T11:48:20;0.50;;;0.50;;
5805;SDS011;2929;50.810;8.342;2023-03-14T11:50:55;0.60;;;0.60;;
5805;SDS011;2929;50.810;8.342;2023-03-14T11:53:33;0.60;;;0.60;;
5805;SDS011;2929;50.810;8.342;2023-03-14T11:56:08;0.50;;;0.50;;
5805;SDS011;2929;50.810;8.342;2023-03-14T11:58:42;0.60;;;0.60;;
5805;SDS011;2929;50.810;8.342;2023-03-14T12:01:17;0.60;;;0.60;;
5805;SDS011;2929;50.810;8.342;2023-03-14T12:03:51;1.07;;;0.60;;
5805;SDS011;2929;50.810;8.342;2023-03-14T12:06:24;6.23;;;0.67;;
5805;SDS011;2929;50.810;8.342;2023-03-14T12:08:56;0.70;;;0.70;;
5805;SDS011;2929;50.810;8.342;2023-03-14T12:11:30;0.70;;;0.70;;
5805;SDS011;2929;50.810;8.342;2023-03-14T12:14:02;0.60;;;0.60;;
5805;SDS011;2929;50.810;8.342;2023-03-14T12:16:43;1.03;;;0.93;;
5805;SDS011;2929;50.810;8.342;2023-03-14T12:24:56;2.20;;;0.80;;
5805;SDS011;2929;50.810;8.342;2023-03-14T12:30:30;0.90;;;0.90;;
5805;SDS011;2929;50.810;8.342;2023-03-14T12:33:25;1.20;;;1.10;;
5805;SDS011;2929;50.810;8.342;2023-03-14T12:36:04;0.70;;;0.70;;
5805;SDS011;2929;50.810;8.342;2023-03-14T12:38:52;0.90;;;0.90;;
5805;SDS011;2929;50.810;8.342;2023-03-14T12:41:28;1.17;;;0.83;;
5805;SDS011;2929;50.810;8.342;2023-03-14T12:50:21;0.83;;;0.83;;
5805;SDS011;2929;50.810;8.342;2023-03-14T12:55:58;4.50;;;1.50;;
5805;SDS011;2929;50.810;8.342;2023-03-14T12:58:33;3.17;;;0.90;;
5805;SDS011;2929;50.810;8.342;2023-03-14T13:01:06;1.50;;;1.10;;
5805;SDS011;2929;50.810;8.342;2023-03-14T13:03:43;0.80;;;0.60;;
5805;SDS011;2929;50.810;8.342;2023-03-14T13:06:13;2.70;;;0.80;;
5805;SDS011;2929;50.810;8.342;2023-03-14T13:12:22;0.83;;;0.83;;
5805;SDS011;2929;50.810;8.342;2023-03-14T13:14:56;0.60;;;0.60;;
5805;SDS011;2929;50.810;8.342;2023-03-14T13:17:25;1.47;;;1.33;;
5805;SDS011;2929;50.810;8.342;2023-03-14T13:19:55;1.00;;;0.97;;
5805;SDS011;2929;50.810;8.342;2023-03-14T13:22:27;0.80;;;0.80;;
5805;SDS011;2929;50.810;8.342;2023-03-14T13:25:00;1.93;;;1.30;;
5805;SDS011;2929;50.810;8.342;2023-03-14T13:27:30;1.77;;;1.40;;
5805;SDS011;2929;50.810;8.342;2023-03-14T13:30:04;1.30;;;1.20;;
5805;SDS011;2929;50.810;8.342;2023-03-14T13:32:41;6.87;;;1.30;;
5805;SDS011;2929;50.810;8.342;2023-03-14T13:35:17;2.43;;;2.23;;
5805;SDS011;2929;50.810;8.342;2023-03-14T13:37:47;2.67;;;1.57;;
5805;SDS011;2929;50.810;8.342;2023-03-14T13:40:21;1.87;;;1.67;;
5805;SDS011;2929;50.810;8.342;2023-03-14T13:43:02;2.10;;;1.40;;
5805;SDS011;2929;50.810;8.342;2023-03-14T13:45:41;2.53;;;1.23;;
5805;SDS011;2929;50.810;8.342;2023-03-14T13:48:14;4.20;;;1.77;;
5805;SDS011;2929;50.810;8.342;2023-03-14T13:53:30;2.80;;;2.20;;
5805;SDS011;2929;50.810;8.342;2023-03-14T13:56:00;4.67;;;2.67;;
5805;SDS011;2929;50.810;8.342;2023-03-14T13:58:30;1.33;;;1.23;;
5805;SDS011;2929;50.810;8.342;2023-03-14T14:01:02;1.67;;;1.40;;
5805;SDS011;2929;50.810;8.342;2023-03-14T14:03:32;1.47;;;1.37;;
5805;SDS011;2929;50.810;8.342;2023-03-14T14:06:10;0.90;;;0.90;;
5805;SDS011;2929;50.810;8.342;2023-03-14T14:08:49;1.60;;;0.80;;
5805;SDS011;2929;50.810;8.342;2023-03-14T14:11:19;2.03;;;0.93;;
5805;SDS011;2929;50.810;8.342;2023-03-14T14:13:52;1.10;;;1.00;;
5805;SDS011;2929;50.810;8.342;2023-03-14T14:16:20;1.07;;;1.03;;
5805;SDS011;2929;50.810;8.342;2023-03-14T14:18:51;3.80;;;1.20;;
5805;SDS011;2929;50.810;8.342;2023-03-14T14:21:20;3.43;;;1.30;;
5805;SDS011;2929;50.810;8.342;2023-03-14T14:23:49;4.03;;;1.30;;
5805;SDS011;2929;50.810;8.342;2023-03-14T14:26:17;4.73;;;1.77;;
5805;SDS011;2929;50.810;8.342;2023-03-14T14:28:46;1.90;;;1.20;;
5805;SDS011;2929;50.810;8.342;2023-03-14T14:31:18;4.13;;;1.50;;
5805;SDS011;2929;50.810;8.342;2023-03-14T14:33:53;1.50;;;1.10;;
5805;SDS011;2929;50.810;8.342;2023-03-14T14:36:22;1.53;;;1.20;;
5805;SDS011;2929;50.810;8.342;2023-03-14T14:38:56;1.77;;;1.20;;
5805;SDS011;2929;50.810;8.342;2023-03-14T14:41:26;1.50;;;1.40;;
5805;SDS011;2929;50.810;8.342;2023-03-14T14:43:59;1.83;;;1.37;;
5805;SDS011;2929;50.810;8.342;2023-03-14T14:46:27;3.50;;;1.20;;
5805;SDS011;2929;50.810;8.342;2023-03-14T14:48:57;6.60;;;1.17;;
5805;SDS011;2929;50.810;8.342;2023-03-14T14:51:34;1.43;;;0.83;;
5805;SDS011;2929;50.810;8.342;2023-03-14T14:54:11;1.70;;;1.30;;
5805;SDS011;2929;50.810;8.342;2023-03-14T14:56:40;2.17;;;1.40;;
5805;SDS011;2929;50.810;8.342;2023-03-14T14:59:18;2.60;;;1.50;;
5805;SDS011;2929;50.810;8.342;2023-03-14T15:01:48;4.47;;;1.63;;
5805;SDS011;2929;50.810;8.342;2023-03-14T15:04:16;3.50;;;1.10;;
5805;SDS011;2929;50.810;8.342;2023-03-14T15:06:44;1.63;;;1.20;;
5805;SDS011;2929;50.810;8.342;2023-03-14T15:09:15;3.90;;;1.30;;
5805;SDS011;2929;50.810;8.342;2023-03-14T15:11:43;2.20;;;1.20;;
5805;SDS011;2929;50.810;8.342;2023-03-14T15:14:10;1.30;;;1.20;;
5805;SDS011;2929;50.810;8.342;2023-03-14T15:16:38;3.50;;;1.40;;
5805;SDS011;2929;50.810;8.342;2023-03-14T15:19:09;1.77;;;1.27;;
5805;SDS011;2929;50.810;8.342;2023-03-14T15:21:40;5.40;;;1.80;;
5805;SDS011;2929;50.810;8.342;2023-03-14T15:24:08;2.33;;;1.30;;
5805;SDS011;2929;50.810;8.342;2023-03-14T15:26:37;2.83;;;1.20;;
5805;SDS011;2929;50.810;8.342;2023-03-14T15:29:05;5.63;;;1.80;;
5805;SDS011;2929;50.810;8.342;2023-03-14T15:31:33;2.27;;;1.20;;
5805;SDS011;2929;50.810;8.342;2023-03-14T15:34:00;2.20;;;1.00;;
5805;SDS011;2929;50.810;8.342;2023-03-14T15:36:29;1.17;;;1.00;;
5805;SDS011;2929;50.810;8.342;2023-03-14T15:38:58;1.23;;;0.97;;
5805;SDS011;2929;50.810;8.342;2023-03-14T15:41:26;5.23;;;1.50;;
5805;SDS011;2929;50.810;8.342;2023-03-14T15:43:56;3.97;;;0.93;;
5805;SDS011;2929;50.810;8.342;2023-03-14T15:46:23;5.17;;;1.60;;
5805;SDS011;2929;50.810;8.342;2023-03-14T15:48:51;4.10;;;1.60;;
5805;SDS011;2929;50.810;8.342;2023-03-14T15:51:18;4.40;;;1.10;;
5805;SDS011;2929;50.810;8.342;2023-03-14T15:53:46;5.23;;;1.00;;
5805;SDS011;2929;50.810;8.342;2023-03-14T15:56:15;2.80;;;1.33;;
5805;SDS011;2929;50.810;8.342;2023-03-14T15:58:44;3.33;;;1.30;;
5805;SDS011;2929;50.810;8.342;2023-03-14T16:01:14;5.27;;;1.53;;
5805;SDS011;2929;50.810;8.342;2023-03-14T16:03:42;5.30;;;1.30;;
5805;SDS011;2929;50.810;8.342;2023-03-14T16:06:11;10.67;;;1.97;;
5805;SDS011;2929;50.810;8.342;2023-03-14T16:08:39;2.90;;;1.70;;
5805;SDS011;2929;50.810;8.342;2023-03-14T16:11:08;10.33;;;1.80;;
5805;SDS011;2929;50.810;8.342;2023-03-14T16:13:37;13.73;;;2.30;;
5805;SDS011;2929;50.810;8.342;2023-03-14T16:16:04;4.90;;;1.33;;